Terminal Aerodrome Forecast
Issued by NWS Sterling, VA

Current Version | Previous Version | Text Only | Print | Product List | Glossary Off
Versions: 1 2 3 4 5 6 7 8 9 10 11 12 13 14 15 16 17

041
FTUS41 KLWX 091001 AAA
TAFMRB
TAF AMD
KMRB 091001Z 0910/1006 VRB03KT 5SM BR OVC007
     FM091200 07004KT 2SM -SN OVC007
     FM091400 VRB03KT 1/2SM SN OVC015
     FM091900 30006KT 3SM -SHSN OVC025=

USA.gov is the U.S. government's official web portal to all federal, state and local government web resources and services.